Time;durP1;ratioP1;P1;durP2;ratioP2;P2;SDS_P1;SDS_P2;PMS_P1;PMS_P2;Temp;Humidity;BMP_temperature;BMP_pressure;BME280_temperature;BME280_humidity;BME280_pressure;Samples;Min_cycle;Max_cycle;Signal;HPM_P1;HPM_P2
2022/04/25 00:01:03;;;;;;;3.85;1.85;;;;;;;-140.79;100.00;63287.88;5022088;28;20333;-53
2022/04/25 00:03:29;;;;;;;2.42;1.80;;;;;;;-140.79;100.00;63287.88;5021575;28;20025;-51
2022/04/25 00:05:54;;;;;;;2.63;1.63;;;;;;;-140.79;100.00;63287.88;5005689;28;20024;-52
2022/04/25 00:08:19;;;;;;;3.95;2.00;;;;;;;-140.79;100.00;63287.88;5023136;28;20511;-52
2022/04/25 00:10:46;;;;;;;3.67;1.98;;;;;;;-140.79;100.00;63287.88;5022235;28;20504;-52
2022/04/25 00:13:13;;;;;;;2.80;1.88;;;;;;;-140.79;100.00;63287.88;5007150;28;20033;-52
2022/04/25 00:15:39;;;;;;;4.07;1.80;;;;;;;-140.79;100.00;63287.88;5022413;28;20025;-52
2022/04/25 00:18:04;;;;;;;3.10;1.88;;;;;;;-140.79;100.00;63287.88;4990447;28;20354;-51
2022/04/25 00:20:30;;;;;;;3.33;1.85;;;;;;;-140.79;100.00;63287.88;5012560;28;20535;-53
2022/04/25 00:22:55;;;;;;;3.00;1.85;;;;;;;-140.79;100.00;63287.88;5022909;28;20041;-51
2022/04/25 00:25:21;;;;;;;3.03;2.28;;;;;;;-140.79;100.00;63287.88;5004617;28;20025;-52
2022/04/25 00:27:46;;;;;;;2.85;1.80;;;;;;;-140.79;100.00;63287.88;5022758;28;20025;-52
2022/04/25 00:30:11;;;;;;;2.30;1.63;;;;;;;-140.79;100.00;63287.88;5025163;28;20087;-52
2022/04/25 00:32:37;;;;;;;3.97;2.03;;;;;;;-140.79;100.00;63287.88;5026874;28;20041;-52
2022/04/25 00:35:03;;;;;;;3.00;1.90;;;;;;;-140.79;100.00;63287.88;5022797;28;20025;-51
2022/04/25 00:37:29;;;;;;;2.35;1.92;;;;;;;-140.79;100.00;63287.88;5022844;28;20033;-51
2022/04/25 00:39:55;;;;;;;3.25;1.80;;;;;;;-140.79;100.00;63287.88;5022806;28;20565;-51
2022/04/25 00:42:20;;;;;;;4.75;2.00;;;;;;;-140.79;100.00;63287.88;5022790;28;20032;-52
2022/04/25 00:44:46;;;;;;;3.85;1.95;;;;;;;-140.79;100.00;63287.88;5022436;28;20030;-51
2022/04/25 00:47:11;;;;;;;2.95;1.80;;;;;;;-140.79;100.00;63287.88;5022640;28;20022;-51
2022/04/25 00:49:37;;;;;;;3.40;1.95;;;;;;;-140.79;100.00;63287.88;5022948;28;20038;-53
2022/04/25 00:52:03;;;;;;;2.55;1.80;;;;;;;-140.79;100.00;63287.88;5033608;28;20761;-53
2022/04/25 00:54:29;;;;;;;3.05;1.70;;;;;;;-140.79;100.00;63287.88;5028281;28;20030;-51
2022/04/25 00:56:55;;;;;;;3.80;2.00;;;;;;;-140.79;100.00;63287.88;5021751;28;20547;-52
2022/04/25 00:59:21;;;;;;;3.22;1.90;;;;;;;-140.79;100.00;63287.88;5027165;28;20036;-52
2022/04/25 01:01:47;;;;;;;2.97;1.70;;;;;;;-140.79;100.00;63287.88;5042281;28;20029;-52
2022/04/25 01:04:13;;;;;;;2.88;1.50;;;;;;;-140.79;100.00;63287.88;5042707;28;20087;-53
2022/04/25 01:06:38;;;;;;;3.83;1.90;;;;;;;-140.79;100.00;63287.88;5042223;28;20032;-51
2022/04/25 01:09:04;;;;;;;3.42;2.05;;;;;;;-140.79;100.00;63287.88;5023753;28;20120;-52
2022/04/25 01:11:29;;;;;;;7.15;1.85;;;;;;;-140.79;100.00;63287.88;5018136;28;20137;-52
2022/04/25 01:13:55;;;;;;;2.72;1.90;;;;;;;-140.79;100.00;63287.88;5004381;28;20037;-52
2022/04/25 01:16:20;;;;;;;2.22;1.67;;;;;;;-140.79;100.00;63287.88;5035574;28;20033;-52
2022/04/25 01:18:46;;;;;;;4.05;1.88;;;;;;;-140.79;100.00;63287.88;5007589;28;20029;-54
2022/04/25 01:21:13;;;;;;;2.30;1.67;;;;;;;-140.79;100.00;63287.88;5022960;28;20037;-53
2022/04/25 01:29:07;;;;;;;3.15;1.80;;;;;;;-140.79;100.00;63287.88;5025395;28;20052;-51
2022/04/25 01:31:32;;;;;;;2.60;1.90;;;;;;;-140.79;100.00;63287.88;5007819;28;20501;-54
2022/04/25 01:33:57;;;;;;;3.15;1.88;;;;;;;-140.79;100.00;63287.88;5026088;28;20610;-51
2022/04/25 01:36:24;;;;;;;3.20;2.03;;;;;;;-140.79;100.00;63287.88;5025175;28;20725;-51
2022/04/25 01:38:53;;;;;;;3.00;1.90;;;;;;;-140.79;100.00;63287.88;5007848;28;20112;-51
2022/04/25 01:41:18;;;;;;;4.60;2.13;;;;;;;-140.79;100.00;63287.88;5025447;28;20033;-57
2022/04/25 01:43:44;;;;;;;2.40;1.77;;;;;;;-140.79;100.00;63287.88;5025760;28;20033;-53
2022/04/25 01:46:09;;;;;;;3.25;1.90;;;;;;;-140.79;100.00;63287.88;5025619;28;20022;-52
2022/04/25 01:48:35;;;;;;;3.28;2.20;;;;;;;-140.79;100.00;63287.88;5025572;28;20120;-52
2022/04/25 01:51:00;;;;;;;4.20;1.95;;;;;;;-140.79;100.00;63287.88;5027385;28;20034;-51
2022/04/25 01:53:26;;;;;;;2.63;1.80;;;;;;;-140.79;100.00;63287.88;5021569;28;20041;-51
2022/04/25 01:55:51;;;;;;;3.17;1.88;;;;;;;-140.79;100.00;63287.88;5007217;28;20157;-52
2022/04/25 01:58:17;;;;;;;3.30;1.98;;;;;;;-140.79;100.00;63287.88;5025479;28;20072;-52
2022/04/25 02:00:44;;;;;;;3.25;1.80;;;;;;;-140.79;100.00;63287.88;5025116;28;20052;-51
2022/04/25 02:03:10;;;;;;;4.00;1.90;;;;;;;-140.79;100.00;63287.88;5025032;28;20029;-52
2022/04/25 02:05:35;;;;;;;3.35;1.92;;;;;;;-140.79;100.00;63287.88;5007112;28;20504;-52
2022/04/25 02:08:02;;;;;;;2.92;1.80;;;;;;;-140.79;100.00;63287.88;5025148;28;20033;-51
2022/04/25 02:10:28;;;;;;;3.13;1.95;;;;;;;-140.79;100.00;63287.88;5025032;28;20041;-52
2022/04/25 02:12:53;;;;;;;3.55;2.00;;;;;;;-140.79;100.00;63287.88;5041155;28;20400;-53
2022/04/25 02:15:19;;;;;;;3.67;1.90;;;;;;;-140.79;100.00;63287.88;5024586;28;20029;-53
2022/04/25 02:17:44;;;;;;;3.25;2.10;;;;;;;-140.79;100.00;63287.88;5024853;28;20034;-51
2022/04/25 02:20:14;;;;;;;2.13;1.80;;;;;;;-140.79;100.00;63287.88;5024752;28;20034;-53
2022/04/25 02:22:39;;;;;;;2.37;1.80;;;;;;;-140.79;100.00;63287.88;5025004;28;20029;-52
2022/04/25 02:25:05;;;;;;;2.97;1.88;;;;;;;-140.79;100.00;63287.88;5024427;28;20026;-52
2022/04/25 02:27:31;;;;;;;2.53;1.60;;;;;;;-140.79;100.00;63287.88;5024801;28;20725;-51
2022/04/25 02:29:58;;;;;;;3.42;1.80;;;;;;;-140.79;100.00;63287.88;5007092;28;20104;-51
2022/04/25 02:32:27;;;;;;;3.58;1.95;;;;;;;-140.79;100.00;63287.88;5023820;28;20038;-51
2022/04/25 02:34:54;;;;;;;3.67;2.03;;;;;;;-140.79;100.00;63287.88;5024087;28;20406;-52
2022/04/25 02:37:20;;;;;;;2.95;1.75;;;;;;;-140.79;100.00;63287.88;5024652;28;20121;-51
2022/04/25 02:39:45;;;;;;;3.58;1.88;;;;;;;-140.79;100.00;63287.88;5024230;28;20033;-52
2022/04/25 02:42:11;;;;;;;3.67;1.80;;;;;;;-140.79;100.00;63287.88;5006619;28;20087;-52
2022/04/25 02:44:36;;;;;;;4.13;1.70;;;;;;;-140.79;100.00;63287.88;5024535;28;20038;-52
2022/04/25 02:47:02;;;;;;;2.13;1.67;;;;;;;-140.79;100.00;63287.88;5024541;28;20513;-51
2022/04/25 02:49:27;;;;;;;3.65;2.20;;;;;;;-140.79;100.00;63287.88;5024214;28;20413;-51
2022/04/25 02:51:52;;;;;;;3.00;1.95;;;;;;;-140.79;100.00;63287.88;5033346;28;20028;-51
2022/04/25 02:54:18;;;;;;;2.75;1.67;;;;;;;-140.79;100.00;63287.88;5031641;28;20041;-51
2022/04/25 02:56:43;;;;;;;3.72;1.98;;;;;;;-140.79;100.00;63287.88;5007803;28;20049;-51
2022/04/25 02:59:09;;;;;;;3.90;1.65;;;;;;;-140.79;100.00;63287.88;5023448;28;20563;-50
2022/04/25 03:01:34;;;;;;;2.67;1.90;;;;;;;-140.79;100.00;63287.88;5023620;28;20049;-50
2022/04/25 03:04:00;;;;;;;2.90;1.90;;;;;;;-140.79;100.00;63287.88;5024355;28;20108;-53
2022/04/25 03:06:25;;;;;;;3.10;1.73;;;;;;;-140.79;100.00;63287.88;5023922;28;20048;-52
2022/04/25 03:08:50;;;;;;;3.17;1.80;;;;;;;-140.79;100.00;63287.88;5024058;28;20108;-51
2022/04/25 03:11:16;;;;;;;2.78;2.00;;;;;;;-140.79;100.00;63287.88;5028235;28;20033;-53
2022/04/25 03:13:42;;;;;;;3.58;2.08;;;;;;;-140.79;100.00;63287.88;5036063;28;20076;-52
2022/04/25 03:16:09;;;;;;;3.30;1.90;;;;;;;-140.79;100.00;63287.88;5024008;28;20037;-51
2022/04/25 03:18:34;;;;;;;3.60;2.30;;;;;;;-140.79;100.00;63287.88;5006335;28;20022;-52
2022/04/25 03:21:00;;;;;;;3.22;1.77;;;;;;;-140.79;100.00;63287.88;5042252;28;20033;-53
2022/04/25 03:23:25;;;;;;;2.88;1.60;;;;;;;-140.79;100.00;63287.88;5042820;28;20511;-52
2022/04/25 03:25:51;;;;;;;3.67;1.80;;;;;;;-140.79;100.00;63287.88;5042501;28;20040;-51
2022/04/25 03:28:17;;;;;;;3.53;1.90;;;;;;;-140.79;100.00;63287.88;5041745;28;20083;-53
2022/04/25 03:30:42;;;;;;;2.50;1.80;;;;;;;-140.79;100.00;63287.88;5043299;28;20045;-51
2022/04/25 03:33:11;;;;;;;3.63;1.95;;;;;;;-140.79;100.00;63287.88;5023689;28;20175;-52
2022/04/25 03:35:37;;;;;;;2.83;2.10;;;;;;;-140.79;100.00;63287.88;5023048;28;20075;-52
2022/04/25 03:38:02;;;;;;;2.28;1.55;;;;;;;-140.79;100.00;63287.88;5023124;28;20473;-52
2022/04/25 03:40:28;;;;;;;3.00;1.85;;;;;;;-140.79;100.00;63287.88;5023294;28;20025;-52
2022/04/25 03:42:55;;;;;;;3.03;1.70;;;;;;;-140.79;100.00;63287.88;5023075;28;20040;-51
2022/04/25 03:45:21;;;;;;;3.88;1.77;;;;;;;-140.79;100.00;63287.88;5004841;28;20112;-51
2022/04/25 03:47:47;;;;;;;3.10;2.00;;;;;;;-140.79;100.00;63287.88;5023126;28;20095;-52
2022/04/25 03:50:14;;;;;;;2.30;1.58;;;;;;;-140.79;100.00;63287.88;5022768;28;20611;-55
2022/04/25 03:52:42;;;;;;;2.20;1.60;;;;;;;-140.79;100.00;63287.88;5023034;28;20029;-52
2022/04/25 03:57:53;;;;;;;2.92;2.00;;;;;;;-140.79;100.00;63287.88;5001885;28;20578;-52
2022/04/25 04:00:19;;;;;;;2.97;1.90;;;;;;;-140.79;100.00;63287.88;5015451;28;20037;-51
2022/04/25 04:02:44;;;;;;;3.33;1.70;;;;;;;-140.79;100.00;63287.88;5022874;28;20041;-51
2022/04/25 04:05:10;;;;;;;3.03;1.70;;;;;;;-140.79;100.00;63287.88;5022363;28;20034;-52
2022/04/25 04:07:36;;;;;;;3.25;2.13;;;;;;;-140.79;100.00;63287.88;5007920;28;20044;-52
2022/04/25 04:10:01;;;;;;;3.13;2.17;;;;;;;-140.79;100.00;63287.88;5013202;28;20048;-52
2022/04/25 04:12:31;;;;;;;3.75;1.80;;;;;;;-140.79;100.00;63287.88;5035759;28;20029;-53
2022/04/25 04:15:03;;;;;;;2.53;1.70;;;;;;;-140.79;100.00;63287.88;5024591;28;20112;-51
2022/04/25 04:17:29;;;;;;;2.97;1.98;;;;;;;-140.79;100.00;63287.88;5022634;28;20033;-52
2022/04/25 04:19:54;;;;;;;2.55;1.55;;;;;;;-140.79;100.00;63287.88;5031494;28;20234;-51
2022/04/25 04:22:21;;;;;;;3.83;2.10;;;;;;;-140.79;100.00;63287.88;5017545;28;20030;-52
2022/04/25 04:24:46;;;;;;;3.28;2.00;;;;;;;-140.79;100.00;63287.88;5022374;28;20060;-52
2022/04/25 04:27:13;;;;;;;2.45;1.73;;;;;;;-140.79;100.00;63287.88;5022087;28;20485;-52
2022/04/25 04:29:40;;;;;;;2.40;1.70;;;;;;;-140.79;100.00;63287.88;5022768;28;20025;-52
2022/04/25 04:32:06;;;;;;;4.13;2.20;;;;;;;-140.79;100.00;63287.88;5015319;28;20098;-52
2022/04/25 04:34:31;;;;;;;4.40;1.92;;;;;;;-140.79;100.00;63287.88;5027631;28;20029;-52
2022/04/25 04:36:57;;;;;;;2.78;1.80;;;;;;;-140.79;100.00;63287.88;5022167;28;20489;-52
2022/04/25 04:39:22;;;;;;;3.88;1.83;;;;;;;-140.79;100.00;63287.88;5022812;28;20185;-51
2022/04/25 04:41:47;;;;;;;3.25;1.88;;;;;;;-140.79;100.00;63287.88;5022198;28;20029;-51
2022/04/25 04:44:13;;;;;;;4.70;1.67;;;;;;;-140.79;100.00;63287.88;5021705;28;20469;-51
2022/04/25 04:46:39;;;;;;;3.13;1.90;;;;;;;-140.79;100.00;63287.88;5022350;28;20029;-51
2022/04/25 04:49:04;;;;;;;2.95;1.80;;;;;;;-140.79;100.00;63287.88;5022044;28;20029;-49
2022/04/25 04:51:30;;;;;;;2.60;1.70;;;;;;;-140.79;100.00;63287.88;5028032;28;20251;-55
2022/04/25 04:53:59;;;;;;;2.63;1.52;;;;;;;-140.79;100.00;63287.88;5032920;28;20029;-50
2022/04/25 04:56:31;;;;;;;2.72;1.80;;;;;;;-140.79;100.00;63287.88;5023015;28;20148;-53
2022/04/25 04:58:58;;;;;;;4.35;1.98;;;;;;;-140.79;100.00;63287.88;5025487;28;20068;-52
2022/04/25 05:01:23;;;;;;;3.53;1.88;;;;;;;-140.79;100.00;63287.88;5044367;28;20499;-52
2022/04/25 05:03:50;;;;;;;3.90;1.88;;;;;;;-140.79;100.00;63287.88;5034139;28;20021;-52
2022/04/25 05:06:15;;;;;;;3.67;1.88;;;;;;;-140.79;100.00;63287.88;5017572;28;20810;-51
2022/04/25 05:08:41;;;;;;;3.80;1.85;;;;;;;-140.79;100.00;63287.88;5026275;28;20037;-52
2022/04/25 05:11:09;;;;;;;2.72;1.85;;;;;;;-140.79;100.00;63287.88;5024421;28;20033;-54
2022/04/25 05:13:36;;;;;;;2.95;1.70;;;;;;;-140.79;100.00;63287.88;5038993;28;20033;-51
2022/04/25 05:16:02;;;;;;;3.65;2.00;;;;;;;-140.79;100.00;63287.88;5025868;28;20440;-51
2022/04/25 05:18:28;;;;;;;4.28;1.80;;;;;;;-140.79;100.00;63287.88;5025982;28;20030;-51
2022/04/25 05:20:54;;;;;;;3.10;1.80;;;;;;;-140.79;100.00;63287.88;5014450;28;20042;-51
2022/04/25 05:23:19;;;;;;;5.65;2.15;;;;;;;-140.79;100.00;63287.88;5025386;28;20048;-51
2022/04/25 05:25:45;;;;;;;2.53;1.98;;;;;;;-140.79;100.00;63287.88;5025510;28;20036;-51
2022/04/25 05:28:10;;;;;;;3.38;2.17;;;;;;;-140.79;100.00;63287.88;5025692;28;20037;-53
2022/04/25 05:30:36;;;;;;;4.22;1.98;;;;;;;-140.79;100.00;63287.88;5014694;28;20046;-52
2022/04/25 05:33:02;;;;;;;4.53;1.92;;;;;;;-140.79;100.00;63287.88;5010202;28;20034;-54
2022/04/25 05:35:33;;;;;;;4.70;2.20;;;;;;;-140.79;100.00;63287.88;5008214;28;20204;-66
2022/04/25 05:37:59;;;;;;;5.38;2.10;;;;;;;-140.79;100.00;63287.88;5016456;28;20034;-57
2022/04/25 05:40:27;;;;;;;3.20;1.90;;;;;;;-140.79;100.00;63287.88;5022387;28;20044;-59
2022/04/25 05:42:53;;;;;;;7.05;1.90;;;;;;;-140.79;100.00;63287.88;5016048;28;20108;-57
2022/04/25 05:45:20;;;;;;;4.18;2.17;;;;;;;-140.79;100.00;63287.88;5011283;28;20036;-58
2022/04/25 05:47:46;;;;;;;4.63;1.88;;;;;;;-140.79;100.00;63287.88;5009972;28;20075;-55
2022/04/25 05:52:56;;;;;;;4.10;2.28;;;;;;;-140.79;100.00;63287.88;5003456;28;20076;-55
2022/04/25 05:55:22;;;;;;;6.85;2.00;;;;;;;-140.79;100.00;63287.88;5011244;28;20037;-56
2022/04/25 05:57:47;;;;;;;5.32;2.63;;;;;;;-140.79;100.00;63287.88;5010421;28;20021;-55
2022/04/25 06:00:14;;;;;;;4.45;2.08;;;;;;;-140.79;100.00;63287.88;5016263;28;20042;-53
2022/04/25 06:02:40;;;;;;;8.38;2.10;;;;;;;-140.79;100.00;63287.88;5021069;28;20033;-55
2022/04/25 06:05:06;;;;;;;6.00;2.13;;;;;;;-140.79;100.00;63287.88;5025330;28;20030;-56
2022/04/25 06:07:33;;;;;;;3.35;1.70;;;;;;;-140.79;100.00;63287.88;5008341;28;20040;-58
2022/04/25 06:09:59;;;;;;;5.40;1.92;;;;;;;-140.79;100.00;63287.88;5027048;28;20106;-58
2022/04/25 06:12:24;;;;;;;6.47;2.22;;;;;;;-140.79;100.00;63287.88;5008307;28;20029;-58
2022/04/25 06:14:53;;;;;;;4.07;1.73;;;;;;;-140.79;100.00;63287.88;5026088;28;20493;-57
2022/04/25 06:17:19;;;;;;;3.58;1.95;;;;;;;-140.79;100.00;63287.88;5026162;28;20040;-61
2022/04/25 06:19:44;;;;;;;2.92;1.70;;;;;;;-140.79;100.00;63287.88;5015777;28;20025;-54
2022/04/25 06:22:09;;;;;;;5.35;2.45;;;;;;;-140.79;100.00;63287.88;5012297;28;20025;-64
2022/04/25 06:24:35;;;;;;;4.60;2.45;;;;;;;-140.79;100.00;63287.88;5020658;28;20499;-60
2022/04/25 06:27:02;;;;;;;4.40;2.10;;;;;;;-140.79;100.00;63287.88;5000357;28;20529;-58
2022/04/25 06:29:29;;;;;;;3.58;2.22;;;;;;;-140.79;100.00;63287.88;5005172;28;20033;-54
2022/04/25 06:31:55;;;;;;;3.78;2.13;;;;;;;-140.79;100.00;63287.88;5008015;28;20058;-57
2022/04/25 06:34:20;;;;;;;5.00;2.22;;;;;;;-140.79;100.00;63287.88;5008480;28;20038;-55
2022/04/25 06:36:45;;;;;;;4.60;1.88;;;;;;;-140.79;100.00;63287.88;5006867;28;20434;-56
2022/04/25 06:39:11;;;;;;;5.40;2.35;;;;;;;-140.79;100.00;63287.88;5008098;28;20045;-53
2022/04/25 06:41:36;;;;;;;5.60;2.22;;;;;;;-140.79;100.00;63287.88;5015546;28;20497;-62
2022/04/25 06:44:02;;;;;;;5.30;2.00;;;;;;;-140.79;100.00;63287.88;5026125;28;20029;-56
2022/04/25 06:46:29;;;;;;;5.47;2.10;;;;;;;-140.79;100.00;63287.88;5025414;28;20044;-64
2022/04/25 06:51:38;;;;;;;5.07;1.92;;;;;;;-140.79;100.00;63287.88;5022493;28;20044;-60
2022/04/25 06:54:04;;;;;;;6.00;2.30;;;;;;;-140.79;100.00;63287.88;5014792;28;20117;-61
2022/04/25 06:56:29;;;;;;;6.65;2.50;;;;;;;-140.79;100.00;63287.88;5025069;28;20037;-56
2022/04/25 06:58:54;;;;;;;10.43;3.17;;;;;;;-140.79;100.00;63287.88;5025049;28;20033;-59
2022/04/25 07:01:21;;;;;;;12.88;3.60;;;;;;;-140.79;100.00;63287.88;5025775;28;20726;-58
2022/04/25 07:03:46;;;;;;;10.73;3.10;;;;;;;-140.79;100.00;63287.88;5024481;28;20049;-60
2022/04/25 07:06:12;;;;;;;8.10;2.83;;;;;;;-140.79;100.00;63287.88;5012874;28;20045;-60
2022/04/25 07:08:37;;;;;;;9.05;2.80;;;;;;;-140.79;100.00;63287.88;5014543;28;20033;-59
2022/04/25 07:11:03;;;;;;;6.55;2.53;;;;;;;-140.79;100.00;63287.88;5006003;28;20013;-59
2022/04/25 07:13:28;;;;;;;5.93;2.47;;;;;;;-140.79;100.00;63287.88;5005777;28;20026;-60
2022/04/25 07:15:53;;;;;;;9.27;2.92;;;;;;;-140.79;100.00;63287.88;5005418;28;20535;-60
2022/04/25 07:18:19;;;;;;;7.28;2.40;;;;;;;-140.79;100.00;63287.88;5016226;28;20048;-57
2022/04/25 07:20:44;;;;;;;8.93;2.75;;;;;;;-140.79;100.00;63287.88;5036272;28;20083;-55
2022/04/25 07:28:51;;;;;;;5.75;2.65;;;;;;;-140.79;100.00;63287.88;5028164;28;20833;-60
2022/04/25 07:31:17;;;;;;;9.63;2.47;;;;;;;-140.79;100.00;63287.88;5005136;28;20065;-54
2022/04/25 07:33:43;;;;;;;6.63;2.63;;;;;;;-140.79;100.00;63287.88;5023327;28;20141;-58
2022/04/25 07:36:15;;;;;;;10.07;2.78;;;;;;;-140.79;100.00;63287.88;5022929;28;20479;-59
2022/04/25 07:38:41;;;;;;;7.22;2.60;;;;;;;-140.79;100.00;63287.88;5022369;28;20040;-57
2022/04/25 07:41:07;;;;;;;8.20;2.83;;;;;;;-140.79;100.00;63287.88;5040600;28;20123;-54
2022/04/25 07:43:34;;;;;;;7.00;2.33;;;;;;;-140.79;100.00;63287.88;5042186;28;20025;-55
2022/04/25 07:46:00;;;;;;;9.13;2.65;;;;;;;-140.79;100.00;63287.88;5034449;28;20025;-58
2022/04/25 07:48:25;;;;;;;6.03;2.30;;;;;;;-140.79;100.00;63287.88;5035692;28;20029;-58
2022/04/25 07:50:51;;;;;;;6.90;2.25;;;;;;;-140.79;100.00;63287.88;5026970;28;20029;-54
2022/04/25 07:53:16;;;;;;;12.52;2.40;;;;;;;-140.79;100.00;63287.88;5025429;28;20048;-54
2022/04/25 07:55:42;;;;;;;7.50;2.35;;;;;;;-140.79;100.00;63287.88;5024606;28;20029;-56
2022/04/25 07:58:08;;;;;;;7.10;2.78;;;;;;;-140.79;100.00;63287.88;5024088;28;20037;-53
2022/04/25 08:00:35;;;;;;;5.00;2.22;;;;;;;-140.79;100.00;63287.88;5024772;28;20037;-58
2022/04/25 08:03:01;;;;;;;5.43;2.30;;;;;;;-140.79;100.00;63287.88;5007100;28;20029;-54
2022/04/25 08:05:26;;;;;;;5.65;2.30;;;;;;;-140.79;100.00;63287.88;5024901;28;20025;-58
2022/04/25 08:07:52;;;;;;;4.75;2.15;;;;;;;-140.79;100.00;63287.88;5032585;28;20033;-57
2022/04/25 08:10:17;;;;;;;6.57;2.50;;;;;;;-140.79;100.00;63287.88;5033388;28;20029;-57
2022/04/25 08:18:13;;;;;;;6.63;2.33;;;;;;;-140.79;100.00;63287.88;5010099;28;20175;-56
2022/04/25 08:20:38;;;;;;;6.88;2.60;;;;;;;-140.79;100.00;63287.88;5024418;28;20147;-57
2022/04/25 08:23:05;;;;;;;6.82;2.53;;;;;;;-140.79;100.00;63287.88;5024256;28;20033;-58
2022/04/25 08:25:30;;;;;;;5.65;2.47;;;;;;;-140.79;100.00;63287.88;5006495;28;20469;-57
2022/04/25 08:27:59;;;;;;;8.73;2.80;;;;;;;-140.79;100.00;63287.88;5023677;28;20030;-55
2022/04/25 08:30:25;;;;;;;7.93;3.10;;;;;;;-140.79;100.00;63287.88;5037437;28;20063;-59
2022/04/25 08:32:51;;;;;;;4.85;2.33;;;;;;;-140.79;100.00;63287.88;5022736;28;20428;-55
2022/04/25 08:35:17;;;;;;;8.18;2.65;;;;;;;-140.79;100.00;63287.88;5047422;28;20508;-57
2022/04/25 08:37:42;;;;;;;7.75;2.78;;;;;;;-140.79;100.00;63287.88;5041884;28;20025;-57
2022/04/25 08:40:08;;;;;;;8.00;2.42;;;;;;;-140.79;100.00;63287.88;5027536;28;20128;-59
2022/04/25 08:42:35;;;;;;;5.65;2.10;;;;;;;-140.79;100.00;63287.88;5027805;28;20029;-56
2022/04/25 08:45:00;;;;;;;4.15;2.22;;;;;;;-140.79;100.00;63287.88;5044328;28;20070;-56
2022/04/25 08:47:29;;;;;;;6.28;2.20;;;;;;;-140.79;100.00;63287.88;5043658;28;20029;-58
2022/04/25 08:49:57;;;;;;;6.45;2.65;;;;;;;-140.79;100.00;63287.88;5009359;28;20018;-54
2022/04/25 08:52:23;;;;;;;6.95;2.92;;;;;;;-140.79;100.00;63287.88;5022171;28;20028;-56
2022/04/25 08:54:48;;;;;;;7.65;2.25;;;;;;;-140.79;100.00;63287.88;5047611;28;20029;-57
2022/04/25 08:57:15;;;;;;;8.73;2.95;;;;;;;-140.79;100.00;63287.88;5026538;28;20033;-53
2022/04/25 08:59:41;;;;;;;6.82;2.22;;;;;;;-140.79;100.00;63287.88;5017454;28;20022;-56
2022/04/25 09:02:06;;;;;;;6.07;2.20;;;;;;;-140.79;100.00;63287.88;5006148;28;20810;-58
2022/04/25 09:04:32;;;;;;;6.85;2.42;;;;;;;-140.79;100.00;63287.88;5010241;28;20124;-60
2022/04/25 09:06:58;;;;;;;7.43;3.03;;;;;;;-140.79;100.00;63287.88;5009270;28;20041;-53
2022/04/25 09:09:23;;;;;;;7.00;2.35;;;;;;;-140.79;100.00;63287.88;5010228;28;20516;-55
2022/04/25 09:14:33;;;;;;;5.28;2.13;;;;;;;-140.79;100.00;63287.88;5027258;28;20040;-55
2022/04/25 09:16:59;;;;;;;8.15;2.15;;;;;;;-140.79;100.00;63287.88;5027385;28;20038;-53
2022/04/25 09:19:25;;;;;;;8.45;2.30;;;;;;;-140.79;100.00;63287.88;5027110;28;20155;-53
2022/04/25 09:21:51;;;;;;;6.57;2.78;;;;;;;-140.79;100.00;63287.88;5009014;28;20110;-53
2022/04/25 09:24:26;;;;;;;6.03;2.10;;;;;;;-140.79;100.00;63287.88;5026682;28;20033;-54
2022/04/25 09:26:53;;;;;;;7.93;2.42;;;;;;;-140.79;100.00;63287.88;5026709;28;20179;-54
2022/04/25 09:29:28;;;;;;;6.63;2.10;;;;;;;-140.79;100.00;63287.88;5026930;28;20048;-55
2022/04/25 09:31:53;;;;;;;6.72;2.30;;;;;;;-140.79;100.00;63287.88;5026593;28;20049;-56
2022/04/25 09:34:59;;;;;;;7.45;2.90;;;;;;;-140.79;100.00;63287.88;5027118;28;20063;-53
2022/04/25 09:37:06;;;;;;;4.85;1.98;;;;;;;-140.79;100.00;63287.88;5026554;28;20036;-58
2022/04/25 09:39:31;;;;;;;9.00;2.53;;;;;;;-140.79;100.00;63287.88;5030848;28;20103;-56
2022/04/25 09:41:57;;;;;;;22.52;3.28;;;;;;;-140.79;100.00;63287.88;5045241;28;20112;-51
2022/04/25 09:44:23;;;;;;;15.75;2.95;;;;;;;-140.79;100.00;63287.88;5011903;28;20136;-53
2022/04/25 09:46:49;;;;;;;9.75;2.35;;;;;;;-140.79;100.00;63287.88;5026395;28;20643;-60
2022/04/25 09:49:20;;;;;;;10.50;2.88;;;;;;;-140.79;100.00;63287.88;4993478;28;20096;-58
2022/04/25 09:52:02;;;;;;;11.68;2.78;;;;;;;-140.79;100.00;63287.88;5009295;28;20079;-56
2022/04/25 09:54:27;;;;;;;8.55;2.50;;;;;;;-140.79;100.00;63287.88;4993856;28;20029;-57
2022/04/25 09:56:53;;;;;;;13.60;2.53;;;;;;;-140.79;100.00;63287.88;5007953;28;20040;-53
2022/04/25 09:59:21;;;;;;;10.25;2.63;;;;;;;-140.79;100.00;63287.88;5008125;28;20053;-56
2022/04/25 10:02:04;;;;;;;12.25;2.17;;;;;;;-140.79;100.00;63287.88;5006336;28;20064;-54
2022/04/25 10:04:34;;;;;;;13.98;2.42;;;;;;;-140.79;100.00;63287.88;5014856;28;20034;-59
2022/04/25 10:07:06;;;;;;;12.15;1.90;;;;;;;-140.79;100.00;63287.88;5008370;28;20140;-54
2022/04/25 10:09:32;;;;;;;10.10;2.50;;;;;;;-140.79;100.00;63287.88;5010538;28;20026;-58
2022/04/25 10:11:59;;;;;;;8.85;2.15;;;;;;;-140.79;100.00;63287.88;5008005;28;20026;-58
2022/04/25 10:14:25;;;;;;;12.15;2.40;;;;;;;-140.79;100.00;63287.88;5011721;28;20030;-58
2022/04/25 10:16:50;;;;;;;11.73;2.40;;;;;;;-140.79;100.00;63287.88;5005737;28;20137;-53
2022/04/25 10:19:16;;;;;;;8.90;2.30;;;;;;;-140.79;100.00;63287.88;4987906;28;20026;-61
2022/04/25 10:21:41;;;;;;;14.02;2.35;;;;;;;-140.79;100.00;63287.88;4987851;28;20029;-53
2022/04/25 10:24:07;;;;;;;9.93;2.70;;;;;;;-140.79;100.00;63287.88;5014052;28;20033;-57
2022/04/25 10:26:32;;;;;;;11.50;1.83;;;;;;;-140.79;100.00;63287.88;5013968;28;20032;-54
2022/04/25 10:29:07;;;;;;;9.90;2.10;;;;;;;-140.79;100.00;63287.88;5021633;28;20026;-54
2022/04/25 10:31:41;;;;;;;14.02;2.28;;;;;;;-140.79;100.00;63287.88;5002335;28;20755;-58
2022/04/25 10:34:07;;;;;;;9.95;2.22;;;;;;;-140.79;100.00;63287.88;5024267;28;20052;-55
2022/04/25 10:36:38;;;;;;;13.68;2.35;;;;;;;-140.79;100.00;63287.88;5040723;28;20033;-56
2022/04/25 10:39:27;;;;;;;8.57;1.58;;;;;;;-140.79;100.00;63287.88;5025111;28;20640;-53
2022/04/25 10:44:36;;;;;;;11.18;2.10;;;;;;;-140.79;100.00;63287.88;5027521;28;20793;-56
2022/04/25 10:47:05;;;;;;;9.07;2.00;;;;;;;-140.79;100.00;63287.88;5007548;28;20116;-58
2022/04/25 10:49:34;;;;;;;12.15;2.22;;;;;;;-140.79;100.00;63287.88;5025314;28;20040;-55
2022/04/25 10:51:59;;;;;;;10.57;2.47;;;;;;;-140.79;100.00;63287.88;5024528;28;20453;-56
2022/04/25 10:54:28;;;;;;;13.05;3.08;;;;;;;-140.79;100.00;63287.88;5023036;28;20029;-58
2022/04/25 10:57:09;;;;;;;14.68;3.38;;;;;;;-140.79;100.00;63287.88;5023938;28;20057;-57
2022/04/25 10:59:35;;;;;;;14.77;4.28;;;;;;;-140.79;100.00;63287.88;5021652;28;20496;-54
2022/04/25 11:02:01;;;;;;;17.38;3.78;;;;;;;-140.79;100.00;63287.88;5019578;28;20033;-54
2022/04/25 11:04:27;;;;;;;12.25;2.53;;;;;;;-140.79;100.00;63287.88;5016266;28;20501;-55
2022/04/25 11:07:21;;;;;;;12.02;2.90;;;;;;;-140.79;100.00;63287.88;5025094;28;20057;-55
2022/04/25 11:09:47;;;;;;;12.05;3.00;;;;;;;-140.79;100.00;63287.88;5023728;28;20525;-57
2022/04/25 11:12:12;;;;;;;11.30;3.63;;;;;;;-140.79;100.00;63287.88;5029673;28;20112;-53
2022/04/25 11:14:37;;;;;;;14.85;3.13;;;;;;;-140.79;100.00;63287.88;5024645;28;20170;-53
2022/04/25 11:17:11;;;;;;;15.75;3.00;;;;;;;-140.79;100.00;63287.88;5024296;28;20452;-56
2022/04/25 11:19:45;;;;;;;12.20;2.78;;;;;;;-140.79;100.00;63287.88;5023046;28;20029;-51
2022/04/25 11:22:28;;;;;;;9.93;2.10;;;;;;;-140.79;100.00;63287.88;5024125;28;20056;-53
2022/04/25 11:24:53;;;;;;;12.00;2.70;;;;;;;-140.79;100.00;63287.88;5023965;28;20102;-54
2022/04/25 11:27:21;;;;;;;10.77;2.67;;;;;;;-140.79;100.00;63287.88;5019836;28;20034;-52
2022/04/25 11:30:07;;;;;;;12.35;2.53;;;;;;;-140.79;100.00;63287.88;5023695;28;20606;-53
2022/04/25 11:32:35;;;;;;;11.23;2.85;;;;;;;-140.79;100.00;63287.88;4988343;28;20057;-52
2022/04/25 11:35:01;;;;;;;9.50;2.22;;;;;;;-140.79;100.00;63287.88;4971142;28;20177;-55
2022/04/25 11:37:32;;;;;;;9.18;2.45;;;;;;;-140.79;100.00;63287.88;5003658;28;20040;-54